createdAt,value
2019-05-06T00:01:24.594Z,5.40
2019-05-06T00:03:54.949Z,5.30
2019-05-06T00:06:23.960Z,5.20
2019-05-06T00:08:54.611Z,5.10
2019-05-06T00:11:23.983Z,5.00
2019-05-06T00:13:54.325Z,4.90
2019-05-06T00:16:23.863Z,5.00
2019-05-06T00:18:54.032Z,4.90
2019-05-06T00:21:24.468Z,4.90
2019-05-06T00:23:54.663Z,4.90
2019-05-06T00:26:44.716Z,5.00
2019-05-06T00:29:19.025Z,5.00
2019-05-06T00:31:47.975Z,4.90
2019-05-06T00:34:16.953Z,4.90
2019-05-06T00:36:46.037Z,4.80
2019-05-06T00:39:24.379Z,4.80
2019-05-06T00:42:00.986Z,4.80
2019-05-06T00:44:29.932Z,4.70
2019-05-06T00:46:58.782Z,4.80
2019-05-06T00:49:28.004Z,4.80
2019-05-06T00:51:56.844Z,4.60
2019-05-06T00:54:26.836Z,4.60
2019-05-06T00:56:55.957Z,4.70
2019-05-06T00:59:24.777Z,4.70
2019-05-06T01:01:53.955Z,4.70
2019-05-06T01:04:24.498Z,4.70
2019-05-06T01:06:54.527Z,4.80
2019-05-06T01:09:24.424Z,4.80
2019-05-06T01:11:54.974Z,4.80
2019-05-06T01:14:29.455Z,4.90
2019-05-06T01:16:58.485Z,4.90
2019-05-06T01:19:27.349Z,4.90
2019-05-06T01:21:56.622Z,4.80
2019-05-06T01:24:25.553Z,4.80
2019-05-06T01:26:54.431Z,4.90
2019-05-06T01:29:24.173Z,4.80
2019-05-06T01:31:54.396Z,4.80
2019-05-06T01:34:24.511Z,4.80
2019-05-06T01:36:54.655Z,4.80
2019-05-06T01:39:58.270Z,4.90
2019-05-06T01:42:39.985Z,5.00
2019-05-06T01:45:09.323Z,5.00
2019-05-06T01:47:38.192Z,5.00
2019-05-06T01:50:08.023Z,4.90
2019-05-06T01:52:36.976Z,4.80
2019-05-06T01:55:06.070Z,4.80
2019-05-06T01:57:35.221Z,4.80
2019-05-06T02:00:06.554Z,4.80
2019-05-06T02:02:35.664Z,4.80
2019-05-06T02:05:04.925Z,4.80
2019-05-06T02:07:34.928Z,4.80
2019-05-06T02:10:04.267Z,4.80
2019-05-06T02:12:34.243Z,4.80
2019-05-06T02:15:03.968Z,4.90
2019-05-06T02:17:34.500Z,4.90
2019-05-06T02:20:04.283Z,5.00
2019-05-06T02:22:57.650Z,5.20
2019-05-06T02:25:38.398Z,5.20
2019-05-06T02:28:07.265Z,5.20
2019-05-06T02:31:01.316Z,5.10
2019-05-06T02:33:55.861Z,5.20
2019-05-06T02:36:29.797Z,5.20
2019-05-06T02:38:58.633Z,5.40
2019-05-06T02:41:27.737Z,5.40
2019-05-06T02:43:56.686Z,5.40
2019-05-06T02:46:25.574Z,5.40
2019-05-06T02:49:03.918Z,5.30
2019-05-06T02:51:33.287Z,5.40
2019-05-06T02:54:03.425Z,5.40
2019-05-06T02:56:33.342Z,5.30
2019-05-06T02:59:04.308Z,5.20
2019-05-06T03:01:33.994Z,5.10
2019-05-06T03:04:04.469Z,5.10
2019-05-06T03:06:34.058Z,5.10
2019-05-06T03:09:03.352Z,5.20
2019-05-06T03:11:33.255Z,5.20
2019-05-06T03:14:03.396Z,5.20
2019-05-06T03:16:33.262Z,5.20
2019-05-06T03:19:04.134Z,5.30
2019-05-06T03:21:55.089Z,5.30
2019-05-06T03:24:33.291Z,5.30
2019-05-06T03:27:04.541Z,5.40
2019-05-06T03:29:33.657Z,5.40
2019-05-06T03:32:07.298Z,5.40
2019-05-06T03:34:57.041Z,5.40
2019-05-06T03:37:07.584Z,5.40
2019-05-06T03:39:35.286Z,5.40
2019-05-06T03:42:04.924Z,5.40
2019-05-06T03:44:36.342Z,5.50
2019-05-06T03:47:25.387Z,5.50
2019-05-06T03:49:54.939Z,5.40
2019-05-06T03:52:25.669Z,5.50
2019-05-06T03:54:55.965Z,5.50
2019-05-06T03:57:28.432Z,5.50
2019-05-06T03:59:59.147Z,5.50
2019-05-06T04:02:28.746Z,5.50
2019-05-06T04:04:57.673Z,5.50
2019-05-06T04:07:27.526Z,5.50
2019-05-06T04:09:56.381Z,5.40
2019-05-06T04:12:27.435Z,5.40
2019-05-06T04:14:56.649Z,5.20
2019-05-06T04:17:39.214Z,5.20
2019-05-06T04:20:17.884Z,5.20
2019-05-06T04:22:53.413Z,5.10
2019-05-06T04:25:46.306Z,5.10
2019-05-06T04:28:23.611Z,5.10
2019-05-06T04:30:54.570Z,5.00
2019-05-06T04:33:23.769Z,4.90
2019-05-06T04:35:54.172Z,5.00
2019-05-06T04:38:23.785Z,5.00
2019-05-06T04:40:54.226Z,5.00
2019-05-06T04:43:26.920Z,4.90
2019-05-06T04:45:54.406Z,4.90
2019-05-06T04:48:24.063Z,5.00
2019-05-06T04:50:54.061Z,5.10
2019-05-06T04:53:26.826Z,5.10
2019-05-06T04:55:54.288Z,5.20
2019-05-06T04:58:23.696Z,5.30
2019-05-06T05:00:53.220Z,5.40
2019-05-06T05:03:22.878Z,5.50
2019-05-06T05:05:52.994Z,5.60
2019-05-06T05:08:25.256Z,5.60
2019-05-06T05:11:06.134Z,5.70
2019-05-06T05:13:57.589Z,5.70
2019-05-06T05:16:48.782Z,5.70
2019-05-06T05:19:19.633Z,5.70
2019-05-06T05:21:48.851Z,5.80
2019-05-06T05:24:19.052Z,5.80
2019-05-06T05:26:48.515Z,5.90
2019-05-06T05:29:20.090Z,5.90
2019-05-06T05:31:49.316Z,6.10
2019-05-06T05:34:18.257Z,6.10
2019-05-06T05:36:47.372Z,6.20
2019-05-06T05:39:16.353Z,6.20
2019-05-06T05:41:45.344Z,6.30
2019-05-06T05:44:18.568Z,6.30
2019-05-06T05:46:47.508Z,6.30
2019-05-06T05:49:36.876Z,6.20
2019-05-06T05:52:05.892Z,6.30
2019-05-06T05:54:34.914Z,6.30
2019-05-06T05:57:04.032Z,6.70
2019-05-06T05:59:33.112Z,7.40
2019-05-06T06:02:03.764Z,7.90
2019-05-06T06:04:33.244Z,8.70
2019-05-06T06:07:02.661Z,9.90
2019-05-06T06:09:34.895Z,10.60
2019-05-06T06:12:06.352Z,10.50
2019-05-06T06:14:56.101Z,10.40
2019-05-06T06:17:37.112Z,10.40
2019-05-06T06:20:24.337Z,9.60
2019-05-06T06:22:54.357Z,9.00
2019-05-06T06:25:23.765Z,8.70
2019-05-06T06:27:53.132Z,8.50
2019-05-06T06:30:33.019Z,8.40
2019-05-06T06:33:02.583Z,8.40
2019-05-06T06:35:38.521Z,8.50
2019-05-06T06:38:13.993Z,8.60
2019-05-06T06:40:42.890Z,8.60
2019-05-06T06:43:16.882Z,8.70
2019-05-06T06:45:45.963Z,8.80
2019-05-06T06:48:14.937Z,8.90
2019-05-06T06:50:44.086Z,8.70
2019-05-06T06:53:13.296Z,8.80
2019-05-06T06:55:43.345Z,8.90
2019-05-06T06:58:22.799Z,8.80
2019-05-06T07:01:12.448Z,8.90
2019-05-06T07:03:55.797Z,9.00
2019-05-06T07:06:33.176Z,9.10
2019-05-06T07:09:04.419Z,9.00
2019-05-06T07:11:33.237Z,8.90
2019-05-06T07:14:02.696Z,8.90
2019-05-06T07:16:32.767Z,8.90
2019-05-06T07:19:03.079Z,9.00
2019-05-06T07:21:41.049Z,9.10
2019-05-06T07:24:12.969Z,9.10
2019-05-06T07:26:45.946Z,9.30
2019-05-06T07:29:23.121Z,9.40
2019-05-06T07:31:45.789Z,9.50
2019-05-06T07:34:14.952Z,9.60
2019-05-06T07:36:43.844Z,9.50
2019-05-06T07:39:15.118Z,9.50
2019-05-06T07:41:57.502Z,9.50
2019-05-06T07:44:54.449Z,9.40
2019-05-06T07:47:38.717Z,9.40
2019-05-06T07:50:07.922Z,9.50
2019-05-06T07:52:37.581Z,9.50
2019-05-06T07:55:07.181Z,9.60
2019-05-06T07:57:36.494Z,9.60
2019-05-06T08:00:06.099Z,9.60
2019-05-06T08:02:35.194Z,9.60
2019-05-06T08:05:07.507Z,9.60
2019-05-06T08:07:36.849Z,9.70
2019-05-06T08:10:06.206Z,9.70
2019-05-06T08:12:35.067Z,9.60
2019-05-06T08:15:05.810Z,9.70
2019-05-06T08:17:42.134Z,9.70
2019-05-06T08:20:12.877Z,9.80
2019-05-06T08:22:56.581Z,9.70
2019-05-06T08:25:25.745Z,9.70
2019-05-06T08:27:54.569Z,9.80
2019-05-06T08:30:23.525Z,9.90
2019-05-06T08:32:54.349Z,9.90
2019-05-06T08:35:23.253Z,9.80
2019-05-06T08:37:53.141Z,9.80
2019-05-06T08:40:28.369Z,9.80
2019-05-06T08:42:57.200Z,9.90
2019-05-06T08:45:26.081Z,10.10
2019-05-06T08:47:55.218Z,10.10
2019-05-06T08:50:37.216Z,10.00
2019-05-06T08:53:14.575Z,10.00
2019-05-06T08:55:45.235Z,10.10
2019-05-06T08:58:14.133Z,10.10
2019-05-06T09:01:07.597Z,10.00
2019-05-06T09:03:44.374Z,10.00
2019-05-06T09:06:27.029Z,10.10
2019-05-06T09:08:45.797Z,10.30
2019-05-06T09:11:14.774Z,10.20
2019-05-06T09:13:43.839Z,10.20
2019-05-06T09:16:13.069Z,10.40
2019-05-06T09:18:42.501Z,10.40
2019-05-06T09:21:12.381Z,10.60
2019-05-06T09:23:42.459Z,10.70
2019-05-06T09:26:13.350Z,10.70
2019-05-06T09:29:02.291Z,10.90
2019-05-06T09:31:37.151Z,10.90
2019-05-06T09:34:23.930Z,11.10
2019-05-06T09:37:13.382Z,11.10
2019-05-06T09:39:43.912Z,11.30
2019-05-06T09:42:13.850Z,11.30
2019-05-06T09:44:43.417Z,11.60
2019-05-06T09:47:18.759Z,11.40
2019-05-06T09:49:48.468Z,11.80
2019-05-06T09:52:17.338Z,12.00
2019-05-06T09:55:03.266Z,12.10
2019-05-06T09:57:35.991Z,12.30
2019-05-06T10:00:06.449Z,12.70
2019-05-06T10:02:35.374Z,12.70
2019-05-06T10:05:04.648Z,12.40
2019-05-06T10:07:33.984Z,12.20
2019-05-06T10:10:03.159Z,12.40
2019-05-06T10:12:32.884Z,12.80
2019-05-06T10:15:03.255Z,13.30
2019-05-06T10:17:32.614Z,13.30
2019-05-06T10:20:02.892Z,13.30
2019-05-06T10:22:32.503Z,13.30
2019-05-06T10:25:03.671Z,13.10
2019-05-06T10:27:32.927Z,13.10
2019-05-06T10:30:05.312Z,13.30
2019-05-06T10:32:42.607Z,13.70
2019-05-06T10:35:13.113Z,13.50
2019-05-06T10:38:02.955Z,13.60
2019-05-06T10:40:43.994Z,13.70
2019-05-06T10:43:23.636Z,13.30
2019-05-06T10:45:52.468Z,13.10
2019-05-06T10:48:22.429Z,12.80
2019-05-06T10:50:54.591Z,13.00
2019-05-06T10:53:25.020Z,12.90
2019-05-06T10:55:55.532Z,12.90
2019-05-06T10:58:24.521Z,13.10
2019-05-06T11:01:18.728Z,13.00
2019-05-06T11:03:47.607Z,12.80
2019-05-06T11:06:16.579Z,12.40
2019-05-06T11:08:45.732Z,12.50
2019-05-06T11:11:24.637Z,12.60
2019-05-06T11:13:45.496Z,12.50
2019-05-06T11:16:16.949Z,12.20
2019-05-06T11:18:45.252Z,12.10
2019-05-06T11:21:15.858Z,12.10
2019-05-06T11:23:45.001Z,12.20
2019-05-06T11:26:13.825Z,12.20
2019-05-06T11:28:48.949Z,12.30
2019-05-06T11:31:36.772Z,12.30
2019-05-06T11:34:23.893Z,12.40
2019-05-06T11:37:12.071Z,12.40
2019-05-06T11:39:43.200Z,12.60
2019-05-06T11:42:25.354Z,12.60
2019-05-06T11:44:44.031Z,12.40
2019-05-06T11:47:13.547Z,12.40
2019-05-06T11:49:44.155Z,12.50
2019-05-06T11:52:13.228Z,13.00
2019-05-06T11:54:42.468Z,12.90
2019-05-06T11:57:12.550Z,13.20
2019-05-06T11:59:43.258Z,13.20
2019-05-06T12:02:15.541Z,13.00
2019-05-06T12:04:44.373Z,13.00
2019-05-06T12:07:15.703Z,12.90
2019-05-06T12:09:44.229Z,12.90
2019-05-06T12:12:13.177Z,12.90
2019-05-06T12:14:42.940Z,12.80
2019-05-06T12:17:12.749Z,12.80
2019-05-06T12:19:43.215Z,12.80
2019-05-06T12:22:14.244Z,12.80
2019-05-06T12:24:43.258Z,12.60
2019-05-06T12:27:15.466Z,12.50
2019-05-06T12:29:44.360Z,12.60
2019-05-06T12:32:28.616Z,12.50
2019-05-06T12:34:57.533Z,12.30
2019-05-06T12:37:27.225Z,12.60
2019-05-06T12:39:58.560Z,12.60
2019-05-06T12:42:33.086Z,12.50
2019-05-06T12:45:23.572Z,12.70
2019-05-06T12:48:03.069Z,12.70
2019-05-06T12:50:33.203Z,13.00
2019-05-06T12:53:02.313Z,13.30
2019-05-06T12:55:33.484Z,13.40
2019-05-06T12:58:02.983Z,13.50
2019-05-06T13:00:33.973Z,14.10
2019-05-06T13:03:03.204Z,14.60
2019-05-06T13:05:32.078Z,14.50
2019-05-06T13:08:05.163Z,14.10
2019-05-06T13:10:33.557Z,13.60
2019-05-06T13:13:04.718Z,12.90
2019-05-06T13:15:33.805Z,13.00
2019-05-06T13:18:07.173Z,13.00
2019-05-06T13:20:34.586Z,12.80
2019-05-06T13:23:25.874Z,12.70
2019-05-06T13:25:53.532Z,12.50
2019-05-06T13:28:23.320Z,12.40
2019-05-06T13:30:53.138Z,12.30
2019-05-06T13:33:30.353Z,12.30
2019-05-06T13:36:00.417Z,13.00
2019-05-06T13:38:29.283Z,13.70
2019-05-06T13:40:58.348Z,13.50
2019-05-06T13:43:38.548Z,13.00
2019-05-06T13:46:33.538Z,12.90
2019-05-06T13:49:23.238Z,12.60
2019-05-06T13:52:04.451Z,12.60
2019-05-06T13:54:33.599Z,13.10
2019-05-06T13:57:05.753Z,13.80
2019-05-06T13:59:36.388Z,13.80
2019-05-06T14:02:43.679Z,13.90
2019-05-06T14:05:13.337Z,13.80
2019-05-06T14:07:43.256Z,13.80
2019-05-06T14:10:15.902Z,13.90
2019-05-06T14:12:44.913Z,13.60
2019-05-06T14:15:14.484Z,13.50
2019-05-06T14:17:43.404Z,13.40
2019-05-06T14:20:14.544Z,13.50
2019-05-06T14:22:43.977Z,13.50
2019-05-06T14:25:32.918Z,13.60
2019-05-06T14:28:07.862Z,13.50
2019-05-06T14:30:55.686Z,13.30
2019-05-06T14:33:24.521Z,13.40
2019-05-06T14:35:53.401Z,13.50
2019-05-06T14:38:24.617Z,13.70
2019-05-06T14:41:08.618Z,13.60
2019-05-06T14:43:38.372Z,13.50
2019-05-06T14:46:07.556Z,13.70
2019-05-06T14:48:36.397Z,13.60
2019-05-06T14:51:05.338Z,13.70
2019-05-06T14:53:34.244Z,13.90
2019-05-06T14:56:10.008Z,14.10
2019-05-06T14:58:38.967Z,13.90
2019-05-06T15:01:07.979Z,13.60
2019-05-06T15:03:37.101Z,13.40
2019-05-06T15:06:05.901Z,13.40
2019-05-06T15:08:34.745Z,13.10
2019-05-06T15:11:03.746Z,13.00
2019-05-06T15:13:32.642Z,12.80
2019-05-06T15:16:03.490Z,12.50
2019-05-06T15:18:32.285Z,12.40
2019-05-06T15:21:28.683Z,12.30
2019-05-06T15:23:32.016Z,12.20
2019-05-06T15:26:03.020Z,11.90
2019-05-06T15:28:33.771Z,12.00
2019-05-06T15:31:12.470Z,11.80
2019-05-06T15:33:44.332Z,11.90
2019-05-06T15:36:35.301Z,11.80
2019-05-06T15:39:08.069Z,11.90
2019-05-06T15:41:37.069Z,11.90
2019-05-06T15:44:07.705Z,11.80
2019-05-06T15:46:36.570Z,11.80
2019-05-06T15:49:05.545Z,11.90
2019-05-06T15:51:34.413Z,11.80
2019-05-06T15:54:04.969Z,11.80
2019-05-06T15:56:34.317Z,11.80
2019-05-06T15:59:03.369Z,11.80
2019-05-06T16:01:33.974Z,11.90
2019-05-06T16:04:03.366Z,12.00
2019-05-06T16:06:33.142Z,12.10
2019-05-06T16:09:03.609Z,12.00
2019-05-06T16:11:33.391Z,12.20
2019-05-06T16:14:03.076Z,12.10
2019-05-06T16:16:33.279Z,12.10
2019-05-06T16:19:04.080Z,12.10
2019-05-06T16:21:33.674Z,12.00
2019-05-06T16:24:09.794Z,11.90
2019-05-06T16:26:38.707Z,11.80
2019-05-06T16:29:07.617Z,11.80
2019-05-06T16:31:36.784Z,11.70
2019-05-06T16:34:05.806Z,11.70
2019-05-06T16:36:35.016Z,11.70
2019-05-06T16:39:07.219Z,11.70
2019-05-06T16:41:38.300Z,11.70
2019-05-06T16:44:07.369Z,11.60
2019-05-06T16:46:36.386Z,11.70
2019-05-06T16:49:06.665Z,11.60
2019-05-06T16:51:35.637Z,11.60
2019-05-06T16:54:05.236Z,11.70
2019-05-06T16:56:39.428Z,11.60
2019-05-06T16:59:08.737Z,11.40
2019-05-06T17:01:39.507Z,11.30
2019-05-06T17:04:23.441Z,11.20
2019-05-06T17:06:52.582Z,11.20
2019-05-06T17:09:27.214Z,11.30
2019-05-06T17:11:52.272Z,11.20
2019-05-06T17:14:22.325Z,11.20
2019-05-06T17:16:52.677Z,11.00
2019-05-06T17:19:23.024Z,10.90
2019-05-06T17:21:56.185Z,10.80
2019-05-06T17:24:25.251Z,10.90
2019-05-06T17:26:56.412Z,10.90
2019-05-06T17:29:42.955Z,10.80
2019-05-06T17:32:23.262Z,10.80
2019-05-06T17:34:57.615Z,10.70
2019-05-06T17:37:44.298Z,10.70
2019-05-06T17:40:16.001Z,10.60
2019-05-06T17:42:44.896Z,10.50
2019-05-06T17:45:33.109Z,10.50
2019-05-06T17:48:08.105Z,10.50
2019-05-06T17:50:37.098Z,10.50
2019-05-06T17:53:05.944Z,10.50
2019-05-06T17:55:34.849Z,10.40
2019-05-06T17:58:03.875Z,10.50
2019-05-06T18:00:32.766Z,10.30
2019-05-06T18:03:02.510Z,10.30
2019-05-06T18:05:32.499Z,10.20
2019-05-06T18:08:02.908Z,10.20
2019-05-06T18:10:33.475Z,10.10
2019-05-06T18:13:03.092Z,10.10
2019-05-06T18:15:32.622Z,10.10
2019-05-06T18:18:02.245Z,10.00
2019-05-06T18:20:33.552Z,10.00
2019-05-06T18:23:02.216Z,10.00
2019-05-06T18:25:32.858Z,9.90
2019-05-06T18:28:01.937Z,9.90
2019-05-06T18:30:34.420Z,9.90
2019-05-06T18:33:02.287Z,9.90
2019-05-06T18:35:31.332Z,10.00
2019-05-06T18:38:00.132Z,9.90
2019-05-06T18:40:29.117Z,9.90
2019-05-06T18:42:57.929Z,9.80
2019-05-06T18:45:26.711Z,9.80
2019-05-06T18:47:55.744Z,9.70
2019-05-06T18:50:24.684Z,9.70
2019-05-06T18:52:54.485Z,9.70
2019-05-06T18:55:23.803Z,9.70
2019-05-06T18:57:52.896Z,9.60
2019-05-06T19:00:22.582Z,9.60
2019-05-06T19:02:52.336Z,9.60
2019-05-06T19:05:27.107Z,9.60
2019-05-06T19:07:56.296Z,9.60
2019-05-06T19:10:27.740Z,9.50
2019-05-06T19:12:56.656Z,9.50
2019-05-06T19:15:25.998Z,9.50
2019-05-06T19:17:54.808Z,9.50
2019-05-06T19:20:24.429Z,9.40
2019-05-06T19:22:54.052Z,9.40
2019-05-06T19:25:26.224Z,9.40
2019-05-06T19:27:55.775Z,9.40
2019-05-06T19:30:24.813Z,9.30
2019-05-06T19:32:53.883Z,9.40
2019-05-06T19:35:22.861Z,9.30
2019-05-06T19:37:51.699Z,9.30
2019-05-06T19:40:22.806Z,9.30
2019-05-06T19:42:53.262Z,9.20
2019-05-06T19:45:22.434Z,9.10
2019-05-06T19:47:52.285Z,9.10
2019-05-06T19:50:25.714Z,9.10
2019-05-06T19:52:52.892Z,9.10
2019-05-06T19:55:23.101Z,9.20
2019-05-06T19:57:52.683Z,9.20
2019-05-06T20:00:22.800Z,9.20
2019-05-06T20:02:52.235Z,9.10
2019-05-06T20:05:36.665Z,9.10
2019-05-06T20:08:17.933Z,9.00
2019-05-06T20:10:59.321Z,9.00
2019-05-06T20:13:28.136Z,9.10
2019-05-06T20:15:58.576Z,9.10
2019-05-06T20:18:30.009Z,9.10
2019-05-06T20:20:59.004Z,9.00
2019-05-06T20:23:29.677Z,9.00
2019-05-06T20:26:02.845Z,8.90
2019-05-06T20:28:32.331Z,8.90
2019-05-06T20:31:04.414Z,8.80
2019-05-06T20:33:34.285Z,8.70
2019-05-06T20:36:03.446Z,8.70
2019-05-06T20:38:33.626Z,8.60
2019-05-06T20:41:03.075Z,8.60
2019-05-06T20:43:32.881Z,8.50
2019-05-06T20:46:02.730Z,8.40
2019-05-06T20:48:32.544Z,8.30
2019-05-06T20:51:03.561Z,8.20
2019-05-06T20:53:32.632Z,8.20
2019-05-06T20:56:02.763Z,8.10
2019-05-06T20:58:31.864Z,8.00
2019-05-06T21:01:02.860Z,7.90
2019-05-06T21:03:32.759Z,7.90
2019-05-06T21:06:02.165Z,7.80
2019-05-06T21:08:32.758Z,7.70
2019-05-06T21:11:03.926Z,7.70
2019-05-06T21:13:35.301Z,7.60
2019-05-06T21:16:02.988Z,7.60
2019-05-06T21:18:32.465Z,7.60
2019-05-06T21:21:02.217Z,7.60
2019-05-06T21:23:32.128Z,7.60
2019-05-06T21:26:03.281Z,7.50
2019-05-06T21:28:32.328Z,7.50
2019-05-06T21:31:04.976Z,7.50
2019-05-06T21:33:33.952Z,7.40
2019-05-06T21:36:03.190Z,7.40
2019-05-06T21:38:32.323Z,7.40
2019-05-06T21:41:02.039Z,7.40
2019-05-06T21:43:43.687Z,7.30
2019-05-06T21:46:02.466Z,7.30
2019-05-06T21:48:33.567Z,7.30
2019-05-06T21:51:02.013Z,7.30
2019-05-06T21:53:32.657Z,7.40
2019-05-06T21:56:02.156Z,7.30
2019-05-06T21:58:31.160Z,7.30
2019-05-06T22:01:05.510Z,7.30
2019-05-06T22:03:34.518Z,7.40
2019-05-06T22:06:03.543Z,7.40
2019-05-06T22:08:34.742Z,7.40
2019-05-06T22:11:05.949Z,7.20
2019-05-06T22:13:34.845Z,7.20
2019-05-06T22:16:05.143Z,7.20
2019-05-06T22:18:34.202Z,7.10
2019-05-06T22:21:12.193Z,7.10
2019-05-06T22:24:09.370Z,7.10
2019-05-06T22:26:38.245Z,7.10
2019-05-06T22:29:07.113Z,7.10
2019-05-06T22:31:35.964Z,7.00
2019-05-06T22:34:07.873Z,7.00
2019-05-06T22:36:36.677Z,7.00
2019-05-06T22:39:08.888Z,7.00
2019-05-06T22:41:37.945Z,7.00
2019-05-06T22:44:13.636Z,7.10
2019-05-06T22:46:37.685Z,7.10
2019-05-06T22:49:06.556Z,7.10
2019-05-06T22:51:35.448Z,7.10
2019-05-06T22:54:06.494Z,7.20
2019-05-06T22:56:35.645Z,7.20
2019-05-06T22:59:06.532Z,7.10
2019-05-06T23:01:54.253Z,7.10
2019-05-06T23:04:24.146Z,7.20
2019-05-06T23:06:53.449Z,7.30
2019-05-06T23:09:22.912Z,7.20
2019-05-06T23:11:53.278Z,7.20
2019-05-06T23:14:31.167Z,7.20
2019-05-06T23:16:53.142Z,7.20
2019-05-06T23:19:24.266Z,7.10
2019-05-06T23:21:53.306Z,7.00
2019-05-06T23:24:22.612Z,7.10
2019-05-06T23:26:52.699Z,7.10
2019-05-06T23:29:22.584Z,7.00
2019-05-06T23:31:52.112Z,7.00
2019-05-06T23:34:23.115Z,7.00
2019-05-06T23:37:23.450Z,6.90
2019-05-06T23:40:40.030Z,6.90
2019-05-06T23:43:45.373Z,6.80
2019-05-06T23:46:52.318Z,6.80
2019-05-06T23:49:57.159Z,6.80
2019-05-06T23:53:03.094Z,6.70
2019-05-06T23:56:08.142Z,6.60
2019-05-06T23:58:37.297Z,6.60
